Time;durP1;ratioP1;P1;durP2;ratioP2;P2;SDS_P1;SDS_P2;PMS_P1;PMS_P2;Temp;Humidity;BMP_temperature;BMP_pressure;BME280_temperature;BME280_humidity;BME280_pressure;Samples;Min_cycle;Max_cycle;Signal;HPM_P1;HPM_P2
2021/07/23 18:34:34;;;;;;;7.93;4.22;;;21.50;92.30;;;;;;5017225;28;20054;-86
2021/07/23 18:37:06;;;;;;;11.75;4.93;;;21.20;92.80;;;;;;5034191;28;20057;-86
2021/07/23 18:39:41;;;;;;;11.95;3.83;;;20.90;93.10;;;;;;4992023;28;20058;-88
2021/07/23 18:42:10;;;;;;;13.93;4.70;;;20.70;93.40;;;;;;4993946;28;20066;-86
2021/07/23 18:44:44;;;;;;;11.52;4.13;;;20.50;93.90;;;;;;5027497;28;20063;-86
2021/07/23 18:47:20;;;;;;;7.38;3.67;;;20.50;93.70;;;;;;5005330;28;20050;-85
2021/07/23 18:49:53;;;;;;;8.95;3.70;;;20.30;93.70;;;;;;4999294;28;20054;-84
2021/07/23 18:52:34;;;;;;;9.18;4.55;;;20.30;93.90;;;;;;5007064;28;20054;-83
2021/07/23 18:55:07;;;;;;;11.50;4.40;;;20.20;94.10;;;;;;5030777;28;20050;-84
2021/07/23 18:57:39;;;;;;;14.95;4.38;;;20.00;93.90;;;;;;4989134;28;20057;-87
2021/07/23 19:00:13;;;;;;;16.42;4.03;;;20.10;94.00;;;;;;4999787;28;20034;-89
2021/07/23 19:02:50;;;;;;;30.08;6.80;;;20.10;94.00;;;;;;5010510;28;20138;-86
2021/07/23 19:05:22;;;;;;;7.38;3.55;;;19.90;94.30;;;;;;5024765;28;20056;-86
2021/07/23 19:07:55;;;;;;;10.45;3.95;;;20.00;94.20;;;;;;5030270;28;20045;-85
2021/07/23 19:10:33;;;;;;;14.50;3.88;;;19.90;94.30;;;;;;5020950;28;20054;-84
2021/07/23 19:13:05;;;;;;;11.73;4.85;;;19.90;94.50;;;;;;4997114;28;20054;-85
2021/07/23 19:15:37;;;;;;;15.43;5.95;;;19.90;94.80;;;;;;4998698;28;20047;-86
2021/07/23 19:18:34;;;;;;;11.63;5.82;;;20.00;94.90;;;;;;5035780;28;20046;-85
2021/07/23 19:21:10;;;;;;;17.83;5.85;;;19.10;95.00;;;;;;5043478;28;20038;-85
2021/07/23 19:24:13;;;;;;;11.75;5.32;;;19.70;95.00;;;;;;5019994;28;20038;-86
2021/07/23 19:26:44;;;;;;;11.75;5.22;;;19.50;95.40;;;;;;4993342;28;20054;-87
2021/07/23 19:29:15;;;;;;;10.57;4.97;;;19.50;95.60;;;;;;4966570;28;20080;-85
2021/07/23 19:32:05;;;;;;;14.57;5.50;;;19.40;95.80;;;;;;5002418;28;20054;-84
2021/07/23 19:34:52;;;;;;;15.63;6.18;;;19.30;96.00;;;;;;5008932;28;20054;-85
2021/07/23 19:37:27;;;;;;;19.10;5.82;;;18.00;95.50;;;;;;5016958;28;20061;-84
2021/07/23 19:40:07;;;;;;;10.05;5.10;;;19.20;96.10;;;;;;5010226;28;20062;-85
2021/07/23 19:42:43;;;;;;;14.25;6.90;;;19.20;96.10;;;;;;5001328;28;20060;-86
2021/07/23 19:45:17;;;;;;;14.65;6.68;;;19.20;96.30;;;;;;4995160;28;20058;-85
2021/07/23 19:48:06;;;;;;;16.13;6.35;;;19.20;96.90;;;;;;5008338;28;20054;-86
2021/07/23 19:50:42;;;;;;;19.55;6.97;;;19.20;96.80;;;;;;4985823;28;20064;-85
2021/07/23 19:53:20;;;;;;;19.48;8.95;;;19.30;96.90;;;;;;4977752;28;20053;-85
2021/07/23 19:55:50;;;;;;;21.55;8.63;;;19.30;96.70;;;;;;5009986;28;20065;-86
2021/07/23 19:58:23;;;;;;;15.15;7.55;;;19.30;96.70;;;;;;4969643;28;20058;-86
2021/07/23 20:00:55;;;;;;;26.30;7.80;;;19.20;97.20;;;;;;5000674;28;20050;-85
2021/07/23 20:03:34;;;;;;;16.27;7.57;;;19.20;97.00;;;;;;4976749;28;20077;-85
2021/07/23 20:06:08;;;;;;;17.38;7.60;;;19.50;97.20;;;;;;5010073;28;20049;-85
2021/07/23 20:08:41;;;;;;;16.73;7.30;;;19.10;97.40;;;;;;4986334;28;20053;-86
2021/07/23 20:11:16;;;;;;;18.98;8.02;;;19.00;97.30;;;;;;5025252;28;20061;-85
2021/07/23 20:13:58;;;;;;;17.42;8.15;;;20.00;97.70;;;;;;4994784;28;20053;-85
2021/07/23 20:16:28;;;;;;;18.60;8.00;;;19.00;97.60;;;;;;5010238;28;20057;-86
2021/07/23 20:19:02;;;;;;;16.70;7.47;;;18.20;97.40;;;;;;4981645;28;20053;-84
2021/07/23 20:21:32;;;;;;;14.82;6.47;;;19.00;97.80;;;;;;4994268;28;20058;-85
2021/07/23 20:24:04;;;;;;;24.63;7.78;;;17.80;97.10;;;;;;4997527;28;20047;-86
2021/07/23 20:26:34;;;;;;;17.00;7.63;;;19.00;97.50;;;;;;5028622;28;20061;-84
2021/07/23 20:29:04;;;;;;;18.67;7.20;;;19.00;97.50;;;;;;5009698;28;20320;-86
2021/07/23 20:31:40;;;;;;;17.83;7.75;;;19.00;97.80;;;;;;5013442;28;20100;-85
2021/07/23 20:34:12;;;;;;;17.33;7.70;;;19.00;98.00;;;;;;5032557;28;20057;-85
2021/07/23 20:36:43;;;;;;;20.77;9.00;;;18.90;97.70;;;;;;5011445;28;20134;-85
2021/07/23 20:39:14;;;;;;;14.25;6.90;;;19.00;97.60;;;;;;5029420;28;20054;-85
2021/07/23 20:41:44;;;;;;;15.07;7.90;;;19.00;97.90;;;;;;5012834;28;20057;-85
2021/07/23 20:44:14;;;;;;;16.98;7.70;;;19.10;98.10;;;;;;5031787;28;20038;-85
2021/07/23 20:46:43;;;;;;;16.63;6.85;;;19.00;97.90;;;;;;5014586;28;20558;-85
2021/07/23 20:49:12;;;;;;;17.48;7.95;;;19.00;98.00;;;;;;5032861;28;20060;-86
2021/07/23 20:51:42;;;;;;;18.65;8.65;;;19.00;98.20;;;;;;4993944;28;20064;-86
2021/07/23 20:54:12;;;;;;;19.95;7.43;;;19.00;98.00;;;;;;5011876;28;20053;-85
2021/07/23 20:56:50;;;;;;;15.50;8.82;;;19.00;98.30;;;;;;4995169;28;20077;-86
2021/07/23 20:59:22;;;;;;;17.50;8.10;;;18.90;98.20;;;;;;5010517;28;20054;-85
2021/07/23 21:01:51;;;;;;;27.33;8.65;;;19.00;98.20;;;;;;5005417;28;20057;-86
2021/07/23 21:04:20;;;;;;;17.52;7.53;;;18.90;98.40;;;;;;5028110;28;20060;-84
2021/07/23 21:06:51;;;;;;;23.25;8.52;;;19.00;98.30;;;;;;4995387;28;20053;-85
2021/07/23 21:09:41;;;;;;;18.65;8.40;;;18.90;98.30;;;;;;5011945;28;20042;-86
2021/07/23 21:12:11;;;;;;;15.50;7.57;;;18.90;98.40;;;;;;5021922;28;20057;-84
2021/07/23 21:14:48;;;;;;;18.00;7.40;;;18.80;98.70;;;;;;5020157;28;20045;-85
2021/07/23 21:17:17;;;;;;;22.08;7.65;;;18.80;98.80;;;;;;5012130;28;20033;-85
2021/07/23 21:19:47;;;;;;;16.55;6.85;;;18.80;98.60;;;;;;4995431;28;20054;-85
2021/07/23 21:22:17;;;;;;;22.00;7.10;;;18.80;98.70;;;;;;5008778;28;20060;-85
2021/07/23 21:24:46;;;;;;;18.90;7.65;;;18.80;98.90;;;;;;5007756;28;20064;-86
2021/07/23 21:27:18;;;;;;;17.58;7.70;;;18.80;99.30;;;;;;5027721;28;20057;-88
2021/07/23 21:29:49;;;;;;;15.77;7.88;;;18.70;99.30;;;;;;4976954;28;20064;-86
2021/07/23 21:32:17;;;;;;;17.55;7.20;;;18.70;98.90;;;;;;5026238;28;20427;-86
2021/07/23 21:34:46;;;;;;;22.55;7.78;;;18.70;98.90;;;;;;4988858;28;20062;-85
2021/07/23 21:37:17;;;;;;;17.55;6.13;;;18.70;99.10;;;;;;5009341;28;20059;-85
2021/07/23 21:39:46;;;;;;;15.93;6.47;;;18.70;99.30;;;;;;4991540;28;20046;-86
2021/07/23 21:42:15;;;;;;;14.45;7.25;;;18.60;99.30;;;;;;5009128;28;20408;-86
2021/07/23 21:44:44;;;;;;;17.52;7.15;;;18.60;99.60;;;;;;4991878;28;20447;-85
2021/07/23 21:47:13;;;;;;;13.43;7.60;;;18.60;99.70;;;;;;5008312;28;20049;-86
2021/07/23 21:49:43;;;;;;;16.95;7.25;;;18.50;99.80;;;;;;4989791;28;20053;-86
2021/07/23 21:52:15;;;;;;;18.80;6.18;;;18.50;99.60;;;;;;5009061;28;20046;-84
2021/07/23 21:54:47;;;;;;;17.45;6.57;;;18.50;99.90;;;;;;4990250;28;20062;-86
2021/07/23 21:57:16;;;;;;;19.60;6.72;;;18.40;99.80;;;;;;4991354;28;20239;-85
2021/07/23 21:59:48;;;;;;;13.98;5.75;;;18.40;99.80;;;;;;4992834;28;20046;-86
2021/07/23 22:02:19;;;;;;;28.40;8.90;;;18.40;99.90;;;;;;4974823;28;20058;-85
2021/07/23 22:04:52;;;;;;;12.93;5.45;;;18.40;99.90;;;;;;4993198;28;20061;-86
2021/07/23 22:07:26;;;;;;;16.42;7.32;;;18.40;99.90;;;;;;4990127;28;20058;-86
2021/07/23 22:09:54;;;;;;;23.70;6.95;;;18.40;99.90;;;;;;5011048;28;20050;-85
2021/07/23 22:12:24;;;;;;;18.95;6.57;;;18.40;99.90;;;;;;5009179;28;20042;-85
2021/07/23 22:14:54;;;;;;;12.70;6.10;;;18.40;99.90;;;;;;4992144;28;20504;-86
2021/07/23 22:17:24;;;;;;;17.13;5.75;;;18.30;99.90;;;;;;4991926;28;20058;-83
2021/07/23 22:19:56;;;;;;;19.33;6.03;;;18.30;99.90;;;;;;4991957;28;20057;-87
2021/07/23 22:22:27;;;;;;;15.10;6.07;;;18.30;99.90;;;;;;4973951;28;20058;-86
2021/07/23 22:24:56;;;;;;;12.45;6.00;;;18.20;99.90;;;;;;4993274;28;20052;-85
2021/07/23 22:27:26;;;;;;;14.50;7.03;;;17.90;99.90;;;;;;4991692;28;20518;-86
2021/07/23 22:29:54;;;;;;;13.90;5.95;;;18.10;99.90;;;;;;5009696;28;20050;-85
2021/07/23 22:32:24;;;;;;;20.00;6.57;;;18.00;99.90;;;;;;5003878;28;20046;-86
2021/07/23 22:34:55;;;;;;;17.65;6.70;;;18.20;99.90;;;;;;5035926;28;20063;-85
2021/07/23 22:37:25;;;;;;;13.10;6.18;;;17.90;99.90;;;;;;5022886;28;20072;-85
2021/07/23 22:39:55;;;;;;;13.85;5.43;;;17.90;99.90;;;;;;5012326;28;20062;-86
2021/07/23 22:42:25;;;;;;;17.08;7.00;;;17.90;99.90;;;;;;5028944;28;20060;-85
2021/07/23 22:44:54;;;;;;;17.02;6.07;;;17.80;99.90;;;;;;5011041;28;20054;-86
2021/07/23 22:47:24;;;;;;;17.08;6.78;;;17.80;99.90;;;;;;5009279;28;20062;-86
2021/07/23 22:49:53;;;;;;;12.82;6.53;;;17.80;99.90;;;;;;5020415;28;20022;-85
2021/07/23 22:52:22;;;;;;;17.08;6.10;;;17.80;99.90;;;;;;5013125;28;20073;-85
2021/07/23 22:54:50;;;;;;;15.32;6.03;;;17.80;99.90;;;;;;5013158;28;20038;-85
2021/07/23 22:57:18;;;;;;;11.35;6.18;;;17.80;99.90;;;;;;4996754;28;20061;-86
2021/07/23 22:59:47;;;;;;;15.18;6.53;;;17.70;99.90;;;;;;5011287;28;20056;-83
2021/07/23 23:02:16;;;;;;;24.48;7.50;;;17.70;99.90;;;;;;4993989;28;20050;-87
2021/07/23 23:04:49;;;;;;;16.50;5.40;;;17.70;99.90;;;;;;4997321;28;20052;-86
2021/07/23 23:07:18;;;;;;;21.05;6.72;;;17.70;99.90;;;;;;4996021;28;20102;-85
2021/07/23 23:09:47;;;;;;;13.27;5.90;;;17.60;99.90;;;;;;4982572;28;20068;-86
2021/07/23 23:12:16;;;;;;;12.63;5.55;;;17.60;99.90;;;;;;4999042;28;20479;-86
2021/07/23 23:14:46;;;;;;;15.23;6.45;;;16.90;99.90;;;;;;4995677;28;20062;-86
2021/07/23 23:17:15;;;;;;;12.75;5.90;;;17.60;99.90;;;;;;5010388;28;20058;-87
2021/07/23 23:19:43;;;;;;;18.05;6.80;;;17.60;99.90;;;;;;4992606;28;20065;-87
2021/07/23 23:22:12;;;;;;;14.27;6.43;;;17.60;99.90;;;;;;5028669;28;20050;-86
2021/07/23 23:24:42;;;;;;;11.63;5.80;;;17.60;99.90;;;;;;4990614;28;20056;-88
2021/07/23 23:27:10;;;;;;;11.85;5.85;;;17.60;99.90;;;;;;4995594;28;20049;-85
2021/07/23 23:29:39;;;;;;;14.18;6.47;;;17.60;99.90;;;;;;5011051;28;20458;-86
2021/07/23 23:32:07;;;;;;;14.73;6.03;;;17.70;99.90;;;;;;4994277;28;20055;-86
2021/07/23 23:34:41;;;;;;;19.23;9.57;;;17.70;99.90;;;;;;5010004;28;20052;-87
2021/07/23 23:37:11;;;;;;;20.27;8.30;;;17.70;99.90;;;;;;5005413;28;20058;-86
2021/07/23 23:39:39;;;;;;;14.57;6.65;;;17.80;99.90;;;;;;4998722;28;20067;-85
2021/07/23 23:42:10;;;;;;;13.40;6.07;;;17.70;99.90;;;;;;4992026;28;20060;-87
2021/07/23 23:44:42;;;;;;;13.45;6.03;;;17.60;99.90;;;;;;5013589;28;20050;-85
2021/07/23 23:47:11;;;;;;;;;;;17.60;99.90;;;;;;5013402;28;20060;-87
2021/07/23 23:49:40;;;;;;;15.00;6.13;;;17.50;99.90;;;;;;5013002;28;20100;-85
2021/07/23 23:52:12;;;;;;;12.02;6.68;;;17.50;99.90;;;;;;4997220;28;20041;-87
2021/07/23 23:54:43;;;;;;;15.85;7.05;;;17.50;99.90;;;;;;5000241;28;20052;-86
2021/07/23 23:57:13;;;;;;;16.60;6.78;;;17.50;99.90;;;;;;5016112;28;20056;-85
2021/07/23 23:59:50;;;;;;;17.33;7.57;;;17.50;99.90;;;;;;5014056;28;20042;-86
